sensor_id;sensor_type;location;lat;lon;timestamp;P1;durP1;ratioP1;P2;durP2;ratioP2
58244;SDS011;44550;43.864;25.986;2023-09-30T00:00:20;16.50;;;8.87;;
58244;SDS011;44550;43.864;25.986;2023-09-30T00:04:24;14.77;;;8.20;;
58244;SDS011;44550;43.864;25.986;2023-09-30T00:08:48;14.65;;;8.48;;
58244;SDS011;44550;43.864;25.986;2023-09-30T00:17:25;20.33;;;8.27;;
58244;SDS011;44550;43.864;25.986;2023-09-30T00:21:33;13.82;;;7.38;;
58244;SDS011;44550;43.864;25.986;2023-09-30T00:25:49;15.32;;;8.70;;
58244;SDS011;44550;43.864;25.986;2023-09-30T00:30:01;19.05;;;8.35;;
58244;SDS011;44550;43.864;25.986;2023-09-30T00:34:28;19.45;;;8.50;;
58244;SDS011;44550;43.864;25.986;2023-09-30T00:38:49;24.60;;;9.50;;
58244;SDS011;44550;43.864;25.986;2023-09-30T00:43:18;18.38;;;7.78;;
58244;SDS011;44550;43.864;25.986;2023-09-30T00:47:22;21.17;;;8.15;;
58244;SDS011;44550;43.864;25.986;2023-09-30T00:51:49;19.33;;;8.95;;
58244;SDS011;44550;43.864;25.986;2023-09-30T00:56:09;16.70;;;8.68;;
58244;SDS011;44550;43.864;25.986;2023-09-30T01:00:18;16.98;;;8.88;;
58244;SDS011;44550;43.864;25.986;2023-09-30T01:04:27;24.48;;;9.02;;
58244;SDS011;44550;43.864;25.986;2023-09-30T01:08:43;18.48;;;8.30;;
58244;SDS011;44550;43.864;25.986;2023-09-30T01:12:50;16.73;;;8.60;;
58244;SDS011;44550;43.864;25.986;2023-09-30T01:16:58;17.17;;;7.97;;
58244;SDS011;44550;43.864;25.986;2023-09-30T01:21:03;17.67;;;8.27;;
58244;SDS011;44550;43.864;25.986;2023-09-30T01:25:14;21.33;;;9.25;;
58244;SDS011;44550;43.864;25.986;2023-09-30T01:29:20;20.70;;;8.70;;
58244;SDS011;44550;43.864;25.986;2023-09-30T01:39:09;15.38;;;7.82;;
58244;SDS011;44550;43.864;25.986;2023-09-30T01:49:20;19.02;;;8.80;;
58244;SDS011;44550;43.864;25.986;2023-09-30T01:54:14;21.55;;;8.52;;
58244;SDS011;44550;43.864;25.986;2023-09-30T01:58:36;13.97;;;8.87;;
58244;SDS011;44550;43.864;25.986;2023-09-30T02:02:41;18.45;;;8.40;;
58244;SDS011;44550;43.864;25.986;2023-09-30T02:07:08;17.15;;;9.07;;
58244;SDS011;44550;43.864;25.986;2023-09-30T02:11:10;12.68;;;8.13;;
58244;SDS011;44550;43.864;25.986;2023-09-30T02:15:29;15.10;;;8.18;;
58244;SDS011;44550;43.864;25.986;2023-09-30T02:19:36;17.67;;;8.27;;
58244;SDS011;44550;43.864;25.986;2023-09-30T02:23:41;22.65;;;9.25;;
58244;SDS011;44550;43.864;25.986;2023-09-30T02:28:23;23.48;;;10.43;;
58244;SDS011;44550;43.864;25.986;2023-09-30T02:36:52;16.83;;;9.60;;
58244;SDS011;44550;43.864;25.986;2023-09-30T02:41:09;14.90;;;8.85;;
58244;SDS011;44550;43.864;25.986;2023-09-30T02:45:21;13.48;;;9.07;;
58244;SDS011;44550;43.864;25.986;2023-09-30T02:53:56;24.02;;;9.43;;
58244;SDS011;44550;43.864;25.986;2023-09-30T02:58:00;13.68;;;7.90;;
58244;SDS011;44550;43.864;25.986;2023-09-30T03:02:04;20.65;;;8.30;;
58244;SDS011;44550;43.864;25.986;2023-09-30T03:06:22;23.60;;;8.98;;
58244;SDS011;44550;43.864;25.986;2023-09-30T03:14:55;16.23;;;8.07;;
58244;SDS011;44550;43.864;25.986;2023-09-30T03:18:56;22.73;;;9.00;;
58244;SDS011;44550;43.864;25.986;2023-09-30T03:23:18;20.13;;;9.30;;
58244;SDS011;44550;43.864;25.986;2023-09-30T03:27:22;26.30;;;9.68;;
58244;SDS011;44550;43.864;25.986;2023-09-30T03:31:26;25.95;;;14.15;;
58244;SDS011;44550;43.864;25.986;2023-09-30T03:35:50;29.20;;;18.02;;
58244;SDS011;44550;43.864;25.986;2023-09-30T03:40:05;19.13;;;12.93;;
58244;SDS011;44550;43.864;25.986;2023-09-30T03:44:17;19.88;;;13.00;;
58244;SDS011;44550;43.864;25.986;2023-09-30T03:48:53;18.23;;;11.25;;
58244;SDS011;44550;43.864;25.986;2023-09-30T03:53:30;20.83;;;10.02;;
58244;SDS011;44550;43.864;25.986;2023-09-30T03:57:33;21.60;;;9.95;;
58244;SDS011;44550;43.864;25.986;2023-09-30T04:01:57;19.60;;;11.13;;
58244;SDS011;44550;43.864;25.986;2023-09-30T04:06:08;16.75;;;9.60;;
58244;SDS011;44550;43.864;25.986;2023-09-30T04:10:53;21.15;;;11.45;;
58244;SDS011;44550;43.864;25.986;2023-09-30T04:15:02;32.35;;;14.30;;
58244;SDS011;44550;43.864;25.986;2023-09-30T04:19:28;20.83;;;12.05;;
58244;SDS011;44550;43.864;25.986;2023-09-30T04:23:38;21.33;;;12.57;;
58244;SDS011;44550;43.864;25.986;2023-09-30T04:27:46;32.33;;;12.85;;
58244;SDS011;44550;43.864;25.986;2023-09-30T04:31:56;21.77;;;12.95;;
58244;SDS011;44550;43.864;25.986;2023-09-30T04:42:05;23.83;;;13.10;;
58244;SDS011;44550;43.864;25.986;2023-09-30T04:46:40;25.30;;;11.95;;
58244;SDS011;44550;43.864;25.986;2023-09-30T04:51:17;26.38;;;12.13;;
58244;SDS011;44550;43.864;25.986;2023-09-30T04:55:19;23.45;;;11.77;;
58244;SDS011;44550;43.864;25.986;2023-09-30T04:59:41;27.95;;;17.50;;
58244;SDS011;44550;43.864;25.986;2023-09-30T05:03:46;22.83;;;15.30;;
58244;SDS011;44550;43.864;25.986;2023-09-30T05:07:54;33.33;;;19.52;;
58244;SDS011;44550;43.864;25.986;2023-09-30T05:12:17;21.13;;;12.43;;
58244;SDS011;44550;43.864;25.986;2023-09-30T05:16:23;19.88;;;11.98;;
58244;SDS011;44550;43.864;25.986;2023-09-30T05:20:38;22.92;;;12.50;;
58244;SDS011;44550;43.864;25.986;2023-09-30T05:24:49;25.30;;;11.90;;
58244;SDS011;44550;43.864;25.986;2023-09-30T05:28:59;22.58;;;14.13;;
58244;SDS011;44550;43.864;25.986;2023-09-30T05:33:12;26.42;;;11.35;;
58244;SDS011;44550;43.864;25.986;2023-09-30T05:37:26;18.77;;;10.77;;
58244;SDS011;44550;43.864;25.986;2023-09-30T05:41:49;28.95;;;15.15;;
58244;SDS011;44550;43.864;25.986;2023-09-30T05:45:58;22.98;;;12.98;;
58244;SDS011;44550;43.864;25.986;2023-09-30T05:50:03;16.75;;;11.30;;
58244;SDS011;44550;43.864;25.986;2023-09-30T05:54:10;24.27;;;12.07;;
58244;SDS011;44550;43.864;25.986;2023-09-30T05:58:15;24.23;;;12.65;;
58244;SDS011;44550;43.864;25.986;2023-09-30T06:02:23;22.55;;;11.95;;
58244;SDS011;44550;43.864;25.986;2023-09-30T06:06:26;18.58;;;11.35;;
58244;SDS011;44550;43.864;25.986;2023-09-30T06:10:36;18.67;;;9.13;;
58244;SDS011;44550;43.864;25.986;2023-09-30T06:14:57;22.98;;;10.05;;
58244;SDS011;44550;43.864;25.986;2023-09-30T06:19:05;21.77;;;9.45;;
58244;SDS011;44550;43.864;25.986;2023-09-30T06:23:09;22.95;;;9.82;;
58244;SDS011;44550;43.864;25.986;2023-09-30T06:27:11;37.53;;;11.35;;
58244;SDS011;44550;43.864;25.986;2023-09-30T06:31:28;18.30;;;10.23;;
58244;SDS011;44550;43.864;25.986;2023-09-30T06:35:30;30.02;;;12.07;;
58244;SDS011;44550;43.864;25.986;2023-09-30T06:39:58;23.05;;;10.38;;
58244;SDS011;44550;43.864;25.986;2023-09-30T06:44:00;25.65;;;11.35;;
58244;SDS011;44550;43.864;25.986;2023-09-30T06:48:02;14.43;;;9.48;;
58244;SDS011;44550;43.864;25.986;2023-09-30T06:52:04;28.88;;;10.52;;
58244;SDS011;44550;43.864;25.986;2023-09-30T06:56:18;17.05;;;10.48;;
58244;SDS011;44550;43.864;25.986;2023-09-30T07:00:31;18.00;;;9.93;;
58244;SDS011;44550;43.864;25.986;2023-09-30T07:04:33;29.88;;;10.55;;
58244;SDS011;44550;43.864;25.986;2023-09-30T07:08:34;27.20;;;11.60;;
58244;SDS011;44550;43.864;25.986;2023-09-30T07:12:41;22.70;;;11.10;;
58244;SDS011;44550;43.864;25.986;2023-09-30T07:16:42;28.88;;;10.45;;
58244;SDS011;44550;43.864;25.986;2023-09-30T07:20:49;22.02;;;10.30;;
58244;SDS011;44550;43.864;25.986;2023-09-30T07:25:11;20.98;;;10.60;;
58244;SDS011;44550;43.864;25.986;2023-09-30T07:29:23;18.60;;;10.15;;
58244;SDS011;44550;43.864;25.986;2023-09-30T07:33:27;14.40;;;9.55;;
58244;SDS011;44550;43.864;25.986;2023-09-30T07:37:28;13.73;;;8.77;;
58244;SDS011;44550;43.864;25.986;2023-09-30T07:41:49;11.93;;;8.65;;
58244;SDS011;44550;43.864;25.986;2023-09-30T07:50:48;15.50;;;8.18;;
58244;SDS011;44550;43.864;25.986;2023-09-30T07:54:52;59.63;;;10.77;;
58244;SDS011;44550;43.864;25.986;2023-09-30T07:58:58;23.58;;;7.70;;
58244;SDS011;44550;43.864;25.986;2023-09-30T08:03:06;11.20;;;8.48;;
58244;SDS011;44550;43.864;25.986;2023-09-30T08:07:18;21.92;;;7.82;;
58244;SDS011;44550;43.864;25.986;2023-09-30T08:11:29;12.88;;;8.63;;
58244;SDS011;44550;43.864;25.986;2023-09-30T08:15:37;11.20;;;7.45;;
58244;SDS011;44550;43.864;25.986;2023-09-30T08:19:42;11.40;;;8.60;;
58244;SDS011;44550;43.864;25.986;2023-09-30T08:23:53;13.73;;;8.35;;
58244;SDS011;44550;43.864;25.986;2023-09-30T08:28:09;11.98;;;7.20;;
58244;SDS011;44550;43.864;25.986;2023-09-30T08:32:15;19.08;;;7.88;;
58244;SDS011;44550;43.864;25.986;2023-09-30T08:37:19;13.88;;;7.40;;
58244;SDS011;44550;43.864;25.986;2023-09-30T08:42:03;13.30;;;6.80;;
58244;SDS011;44550;43.864;25.986;2023-09-30T08:46:19;16.50;;;8.20;;
58244;SDS011;44550;43.864;25.986;2023-09-30T08:50:23;14.35;;;6.38;;
58244;SDS011;44550;43.864;25.986;2023-09-30T08:55:01;13.73;;;6.88;;
58244;SDS011;44550;43.864;25.986;2023-09-30T08:59:22;11.55;;;7.60;;
58244;SDS011;44550;43.864;25.986;2023-09-30T09:24:35;22.85;;;8.40;;
58244;SDS011;44550;43.864;25.986;2023-09-30T09:28:39;16.60;;;8.35;;
58244;SDS011;44550;43.864;25.986;2023-09-30T09:32:52;14.18;;;8.35;;
58244;SDS011;44550;43.864;25.986;2023-09-30T09:41:59;13.45;;;8.40;;
58244;SDS011;44550;43.864;25.986;2023-09-30T09:46:52;14.52;;;8.52;;
58244;SDS011;44550;43.864;25.986;2023-09-30T09:52:20;25.08;;;8.45;;
58244;SDS011;44550;43.864;25.986;2023-09-30T09:57:00;11.13;;;8.45;;
58244;SDS011;44550;43.864;25.986;2023-09-30T10:01:39;38.17;;;11.52;;
58244;SDS011;44550;43.864;25.986;2023-09-30T10:06:34;17.30;;;7.68;;
58244;SDS011;44550;43.864;25.986;2023-09-30T10:11:16;16.60;;;7.30;;
58244;SDS011;44550;43.864;25.986;2023-09-30T10:15:45;11.18;;;7.18;;
58244;SDS011;44550;43.864;25.986;2023-09-30T10:29:58;8.20;;;6.55;;
58244;SDS011;44550;43.864;25.986;2023-09-30T10:34:22;10.25;;;6.55;;
58244;SDS011;44550;43.864;25.986;2023-09-30T10:38:39;17.85;;;6.40;;
58244;SDS011;44550;43.864;25.986;2023-09-30T10:42:57;10.35;;;6.60;;
58244;SDS011;44550;43.864;25.986;2023-09-30T10:57:27;12.88;;;6.28;;
58244;SDS011;44550;43.864;25.986;2023-09-30T11:02:18;11.63;;;5.25;;
58244;SDS011;44550;43.864;25.986;2023-09-30T11:07:18;10.93;;;5.43;;
58244;SDS011;44550;43.864;25.986;2023-09-30T11:11:50;10.93;;;5.80;;
58244;SDS011;44550;43.864;25.986;2023-09-30T11:16:05;10.43;;;7.15;;
58244;SDS011;44550;43.864;25.986;2023-09-30T11:21:10;9.90;;;6.90;;
58244;SDS011;44550;43.864;25.986;2023-09-30T11:26:11;23.98;;;21.48;;
58244;SDS011;44550;43.864;25.986;2023-09-30T11:30:18;17.23;;;9.50;;
58244;SDS011;44550;43.864;25.986;2023-09-30T11:34:31;10.55;;;5.28;;
58244;SDS011;44550;43.864;25.986;2023-09-30T11:39:41;13.05;;;6.75;;
58244;SDS011;44550;43.864;25.986;2023-09-30T11:43:39;11.07;;;7.15;;
58244;SDS011;44550;43.864;25.986;2023-09-30T11:48:00;8.23;;;5.38;;
58244;SDS011;44550;43.864;25.986;2023-09-30T11:52:19;13.57;;;11.13;;
58244;SDS011;44550;43.864;25.986;2023-09-30T11:57:01;8.55;;;7.22;;
58244;SDS011;44550;43.864;25.986;2023-09-30T12:01:10;14.27;;;5.72;;
58244;SDS011;44550;43.864;25.986;2023-09-30T12:05:32;19.50;;;5.60;;
58244;SDS011;44550;43.864;25.986;2023-09-30T12:09:44;8.27;;;4.47;;
58244;SDS011;44550;43.864;25.986;2023-09-30T12:13:45;16.80;;;5.13;;
58244;SDS011;44550;43.864;25.986;2023-09-30T12:17:55;7.63;;;4.72;;
58244;SDS011;44550;43.864;25.986;2023-09-30T12:22:27;10.93;;;5.70;;
58244;SDS011;44550;43.864;25.986;2023-09-30T12:31:29;12.05;;;4.75;;
58244;SDS011;44550;43.864;25.986;2023-09-30T12:36:41;8.05;;;4.47;;
58244;SDS011;44550;43.864;25.986;2023-09-30T12:46:23;9.13;;;5.30;;
58244;SDS011;44550;43.864;25.986;2023-09-30T12:51:26;8.70;;;4.57;;
58244;SDS011;44550;43.864;25.986;2023-09-30T12:56:28;9.98;;;5.43;;
58244;SDS011;44550;43.864;25.986;2023-09-30T13:00:34;9.70;;;5.20;;
58244;SDS011;44550;43.864;25.986;2023-09-30T13:05:03;9.45;;;5.40;;
58244;SDS011;44550;43.864;25.986;2023-09-30T13:09:10;12.27;;;5.03;;
58244;SDS011;44550;43.864;25.986;2023-09-30T13:17:28;9.63;;;4.75;;
58244;SDS011;44550;43.864;25.986;2023-09-30T13:21:45;9.32;;;5.43;;
58244;SDS011;44550;43.864;25.986;2023-09-30T13:26:09;12.00;;;5.55;;
58244;SDS011;44550;43.864;25.986;2023-09-30T13:35:13;5.68;;;4.88;;
58244;SDS011;44550;43.864;25.986;2023-09-30T13:39:33;8.80;;;5.25;;
58244;SDS011;44550;43.864;25.986;2023-09-30T13:49:38;11.27;;;5.75;;
58244;SDS011;44550;43.864;25.986;2023-09-30T13:53:42;8.60;;;5.78;;
58244;SDS011;44550;43.864;25.986;2023-09-30T13:58:15;17.02;;;5.53;;
58244;SDS011;44550;43.864;25.986;2023-09-30T14:02:20;11.60;;;5.53;;
58244;SDS011;44550;43.864;25.986;2023-09-30T14:06:28;8.13;;;4.88;;
58244;SDS011;44550;43.864;25.986;2023-09-30T14:10:46;8.43;;;4.60;;
58244;SDS011;44550;43.864;25.986;2023-09-30T14:14:47;21.00;;;5.25;;
58244;SDS011;44550;43.864;25.986;2023-09-30T14:18:48;13.10;;;6.82;;
58244;SDS011;44550;43.864;25.986;2023-09-30T14:49:27;20.40;;;16.17;;
58244;SDS011;44550;43.864;25.986;2023-09-30T14:54:42;19.08;;;13.18;;
58244;SDS011;44550;43.864;25.986;2023-09-30T15:39:53;16.77;;;6.30;;
58244;SDS011;44550;43.864;25.986;2023-09-30T15:45:29;15.13;;;6.22;;
58244;SDS011;44550;43.864;25.986;2023-09-30T17:08:57;30.92;;;10.10;;
58244;SDS011;44550;43.864;25.986;2023-09-30T18:05:24;16.05;;;6.95;;
58244;SDS011;44550;43.864;25.986;2023-09-30T18:09:31;18.63;;;7.40;;
58244;SDS011;44550;43.864;25.986;2023-09-30T18:14:27;22.95;;;7.50;;
58244;SDS011;44550;43.864;25.986;2023-09-30T18:25:31;19.92;;;7.18;;
58244;SDS011;44550;43.864;25.986;2023-09-30T18:36:00;19.02;;;8.20;;
58244;SDS011;44550;43.864;25.986;2023-09-30T18:51:10;19.30;;;7.97;;
58244;SDS011;44550;43.864;25.986;2023-09-30T19:38:51;16.92;;;8.77;;
58244;SDS011;44550;43.864;25.986;2023-09-30T19:49:05;27.90;;;21.38;;
58244;SDS011;44550;43.864;25.986;2023-09-30T19:59:40;39.90;;;24.70;;
58244;SDS011;44550;43.864;25.986;2023-09-30T20:17:09;38.70;;;25.95;;
58244;SDS011;44550;43.864;25.986;2023-09-30T20:21:11;42.42;;;26.42;;
58244;SDS011;44550;43.864;25.986;2023-09-30T20:25:35;44.92;;;29.58;;
58244;SDS011;44550;43.864;25.986;2023-09-30T20:51:20;40.80;;;29.92;;
58244;SDS011;44550;43.864;25.986;2023-09-30T20:55:36;39.80;;;29.33;;
58244;SDS011;44550;43.864;25.986;2023-09-30T20:59:53;41.00;;;30.65;;
58244;SDS011;44550;43.864;25.986;2023-09-30T21:04:40;39.72;;;30.63;;
58244;SDS011;44550;43.864;25.986;2023-09-30T21:08:43;46.42;;;32.05;;
58244;SDS011;44550;43.864;25.986;2023-09-30T21:12:57;37.28;;;28.65;;
58244;SDS011;44550;43.864;25.986;2023-09-30T21:23:26;34.83;;;28.15;;
58244;SDS011;44550;43.864;25.986;2023-09-30T21:33:56;39.47;;;28.23;;
58244;SDS011;44550;43.864;25.986;2023-09-30T21:38:59;32.70;;;26.60;;
58244;SDS011;44550;43.864;25.986;2023-09-30T21:43:43;40.30;;;25.65;;
58244;SDS011;44550;43.864;25.986;2023-09-30T22:00:26;37.77;;;24.93;;
58244;SDS011;44550;43.864;25.986;2023-09-30T22:10:06;27.80;;;22.02;;
58244;SDS011;44550;43.864;25.986;2023-09-30T22:42:10;31.10;;;18.80;;
58244;SDS011;44550;43.864;25.986;2023-09-30T22:47:10;34.30;;;20.02;;
58244;SDS011;44550;43.864;25.986;2023-09-30T23:03:14;25.70;;;20.60;;
58244;SDS011;44550;43.864;25.986;2023-09-30T23:14:17;26.55;;;20.27;;
58244;SDS011;44550;43.864;25.986;2023-09-30T23:19:25;32.47;;;23.25;;
58244;SDS011;44550;43.864;25.986;2023-09-30T23:24:43;27.67;;;21.15;;
58244;SDS011;44550;43.864;25.986;2023-09-30T23:29:25;28.38;;;21.95;;
58244;SDS011;44550;43.864;25.986;2023-09-30T23:34:04;26.63;;;19.90;;
58244;SDS011;44550;43.864;25.986;2023-09-30T23:38:59;22.77;;;19.67;;
58244;SDS011;44550;43.864;25.986;2023-09-30T23:43:20;28.98;;;18.05;;
